sensor_id;sensor_type;location;lat;lon;timestamp;P1;durP1;ratioP1;P2;durP2;ratioP2
49730;SDS011;35622;52.008;5.426;2023-05-31T00:01:34;7.35;;;4.20;;
49730;SDS011;35622;52.008;5.426;2023-05-31T00:04:00;7.57;;;4.35;;
49730;SDS011;35622;52.008;5.426;2023-05-31T00:06:26;7.30;;;4.15;;
49730;SDS011;35622;52.008;5.426;2023-05-31T00:08:52;10.38;;;4.93;;
49730;SDS011;35622;52.008;5.426;2023-05-31T00:11:17;7.40;;;4.88;;
49730;SDS011;35622;52.008;5.426;2023-05-31T00:13:43;8.20;;;4.80;;
49730;SDS011;35622;52.008;5.426;2023-05-31T00:16:09;7.25;;;4.82;;
49730;SDS011;35622;52.008;5.426;2023-05-31T00:18:35;8.45;;;4.50;;
49730;SDS011;35622;52.008;5.426;2023-05-31T00:21:01;7.93;;;4.63;;
49730;SDS011;35622;52.008;5.426;2023-05-31T00:23:26;8.68;;;4.63;;
49730;SDS011;35622;52.008;5.426;2023-05-31T00:25:52;9.95;;;5.47;;
49730;SDS011;35622;52.008;5.426;2023-05-31T00:28:17;10.00;;;4.82;;
49730;SDS011;35622;52.008;5.426;2023-05-31T00:30:43;9.20;;;5.07;;
49730;SDS011;35622;52.008;5.426;2023-05-31T00:33:09;9.55;;;4.97;;
49730;SDS011;35622;52.008;5.426;2023-05-31T00:35:35;8.18;;;4.68;;
49730;SDS011;35622;52.008;5.426;2023-05-31T00:38:05;7.38;;;4.35;;
49730;SDS011;35622;52.008;5.426;2023-05-31T00:40:31;8.27;;;4.32;;
49730;SDS011;35622;52.008;5.426;2023-05-31T00:42:57;8.20;;;4.88;;
49730;SDS011;35622;52.008;5.426;2023-05-31T00:45:22;10.48;;;5.22;;
49730;SDS011;35622;52.008;5.426;2023-05-31T00:47:48;9.82;;;4.90;;
49730;SDS011;35622;52.008;5.426;2023-05-31T00:50:15;11.32;;;5.45;;
49730;SDS011;35622;52.008;5.426;2023-05-31T00:52:41;10.73;;;5.18;;
49730;SDS011;35622;52.008;5.426;2023-05-31T00:55:09;9.52;;;5.03;;
49730;SDS011;35622;52.008;5.426;2023-05-31T00:57:35;10.52;;;5.05;;
49730;SDS011;35622;52.008;5.426;2023-05-31T01:00:02;11.57;;;5.47;;
49730;SDS011;35622;52.008;5.426;2023-05-31T01:02:29;9.60;;;5.13;;
49730;SDS011;35622;52.008;5.426;2023-05-31T01:04:57;9.15;;;5.07;;
49730;SDS011;35622;52.008;5.426;2023-05-31T01:07:23;9.07;;;4.75;;
49730;SDS011;35622;52.008;5.426;2023-05-31T01:09:49;7.00;;;4.68;;
49730;SDS011;35622;52.008;5.426;2023-05-31T01:12:20;8.27;;;4.60;;
49730;SDS011;35622;52.008;5.426;2023-05-31T01:14:59;7.60;;;4.43;;
49730;SDS011;35622;52.008;5.426;2023-05-31T01:20:10;6.38;;;4.18;;
49730;SDS011;35622;52.008;5.426;2023-05-31T01:28:26;9.32;;;4.93;;
49730;SDS011;35622;52.008;5.426;2023-05-31T01:31:00;9.95;;;4.85;;
49730;SDS011;35622;52.008;5.426;2023-05-31T01:33:28;10.43;;;5.00;;
49730;SDS011;35622;52.008;5.426;2023-05-31T01:35:54;7.32;;;4.70;;
49730;SDS011;35622;52.008;5.426;2023-05-31T01:38:19;8.80;;;4.30;;
49730;SDS011;35622;52.008;5.426;2023-05-31T01:40:45;8.10;;;4.13;;
49730;SDS011;35622;52.008;5.426;2023-05-31T01:43:11;8.18;;;4.53;;
49730;SDS011;35622;52.008;5.426;2023-05-31T01:45:37;8.77;;;4.03;;
49730;SDS011;35622;52.008;5.426;2023-05-31T01:48:04;9.70;;;4.38;;
49730;SDS011;35622;52.008;5.426;2023-05-31T01:50:35;7.28;;;4.13;;
49730;SDS011;35622;52.008;5.426;2023-05-31T01:53:02;7.13;;;4.20;;
49730;SDS011;35622;52.008;5.426;2023-05-31T01:55:28;6.72;;;4.18;;
49730;SDS011;35622;52.008;5.426;2023-05-31T01:57:54;7.47;;;4.22;;
49730;SDS011;35622;52.008;5.426;2023-05-31T02:00:21;7.65;;;4.55;;
49730;SDS011;35622;52.008;5.426;2023-05-31T02:02:50;6.28;;;3.97;;
49730;SDS011;35622;52.008;5.426;2023-05-31T02:05:17;7.72;;;3.72;;
49730;SDS011;35622;52.008;5.426;2023-05-31T02:07:43;8.35;;;4.30;;
49730;SDS011;35622;52.008;5.426;2023-05-31T02:10:10;8.88;;;4.25;;
49730;SDS011;35622;52.008;5.426;2023-05-31T02:12:36;8.80;;;4.60;;
49730;SDS011;35622;52.008;5.426;2023-05-31T02:15:02;9.13;;;4.65;;
49730;SDS011;35622;52.008;5.426;2023-05-31T02:17:29;10.00;;;5.38;;
49730;SDS011;35622;52.008;5.426;2023-05-31T02:19:58;9.25;;;4.95;;
49730;SDS011;35622;52.008;5.426;2023-05-31T02:22:24;11.93;;;5.40;;
49730;SDS011;35622;52.008;5.426;2023-05-31T02:24:50;12.95;;;6.07;;
49730;SDS011;35622;52.008;5.426;2023-05-31T02:27:15;10.77;;;5.70;;
49730;SDS011;35622;52.008;5.426;2023-05-31T02:29:41;12.82;;;5.68;;
49730;SDS011;35622;52.008;5.426;2023-05-31T02:32:09;9.63;;;5.43;;
49730;SDS011;35622;52.008;5.426;2023-05-31T02:34:34;11.15;;;5.38;;
49730;SDS011;35622;52.008;5.426;2023-05-31T02:37:01;11.25;;;5.88;;
49730;SDS011;35622;52.008;5.426;2023-05-31T02:39:27;10.65;;;5.20;;
49730;SDS011;35622;52.008;5.426;2023-05-31T02:41:53;8.90;;;5.03;;
49730;SDS011;35622;52.008;5.426;2023-05-31T02:44:20;9.70;;;5.28;;
49730;SDS011;35622;52.008;5.426;2023-05-31T02:46:45;11.20;;;5.15;;
49730;SDS011;35622;52.008;5.426;2023-05-31T02:49:11;11.23;;;5.28;;
49730;SDS011;35622;52.008;5.426;2023-05-31T02:51:36;9.43;;;4.75;;
49730;SDS011;35622;52.008;5.426;2023-05-31T02:54:02;9.75;;;4.97;;
49730;SDS011;35622;52.008;5.426;2023-05-31T02:56:28;9.30;;;5.45;;
49730;SDS011;35622;52.008;5.426;2023-05-31T02:58:53;9.13;;;5.03;;
49730;SDS011;35622;52.008;5.426;2023-05-31T03:01:19;9.88;;;5.32;;
49730;SDS011;35622;52.008;5.426;2023-05-31T03:03:44;8.98;;;5.38;;
49730;SDS011;35622;52.008;5.426;2023-05-31T03:06:10;10.70;;;4.70;;
49730;SDS011;35622;52.008;5.426;2023-05-31T03:08:37;12.52;;;5.43;;
49730;SDS011;35622;52.008;5.426;2023-05-31T03:11:02;12.50;;;5.80;;
49730;SDS011;35622;52.008;5.426;2023-05-31T03:13:28;9.35;;;4.90;;
49730;SDS011;35622;52.008;5.426;2023-05-31T03:15:54;10.15;;;5.18;;
49730;SDS011;35622;52.008;5.426;2023-05-31T03:18:19;11.45;;;5.18;;
49730;SDS011;35622;52.008;5.426;2023-05-31T03:20:45;9.63;;;5.47;;
49730;SDS011;35622;52.008;5.426;2023-05-31T03:23:11;7.57;;;4.50;;
49730;SDS011;35622;52.008;5.426;2023-05-31T03:25:36;8.38;;;4.53;;
49730;SDS011;35622;52.008;5.426;2023-05-31T03:28:02;11.02;;;4.70;;
49730;SDS011;35622;52.008;5.426;2023-05-31T03:30:28;10.20;;;5.40;;
49730;SDS011;35622;52.008;5.426;2023-05-31T03:32:54;8.88;;;4.53;;
49730;SDS011;35622;52.008;5.426;2023-05-31T03:35:20;10.00;;;4.72;;
49730;SDS011;35622;52.008;5.426;2023-05-31T03:37:45;10.52;;;4.90;;
49730;SDS011;35622;52.008;5.426;2023-05-31T03:40:11;8.90;;;5.18;;
49730;SDS011;35622;52.008;5.426;2023-05-31T03:42:37;7.97;;;4.75;;
49730;SDS011;35622;52.008;5.426;2023-05-31T03:45:02;10.23;;;5.25;;
49730;SDS011;35622;52.008;5.426;2023-05-31T03:47:28;8.10;;;5.00;;
49730;SDS011;35622;52.008;5.426;2023-05-31T03:49:54;8.90;;;4.88;;
49730;SDS011;35622;52.008;5.426;2023-05-31T03:52:20;8.07;;;4.80;;
49730;SDS011;35622;52.008;5.426;2023-05-31T03:54:45;11.00;;;4.93;;
49730;SDS011;35622;52.008;5.426;2023-05-31T03:57:12;10.70;;;5.20;;
49730;SDS011;35622;52.008;5.426;2023-05-31T03:59:37;8.95;;;4.85;;
49730;SDS011;35622;52.008;5.426;2023-05-31T04:02:03;11.65;;;5.45;;
49730;SDS011;35622;52.008;5.426;2023-05-31T04:04:29;10.18;;;5.40;;
49730;SDS011;35622;52.008;5.426;2023-05-31T04:06:54;11.55;;;5.78;;
49730;SDS011;35622;52.008;5.426;2023-05-31T04:09:20;9.00;;;5.45;;
49730;SDS011;35622;52.008;5.426;2023-05-31T04:11:46;9.93;;;5.32;;
49730;SDS011;35622;52.008;5.426;2023-05-31T04:14:12;9.35;;;5.38;;
49730;SDS011;35622;52.008;5.426;2023-05-31T04:16:37;8.55;;;5.72;;
49730;SDS011;35622;52.008;5.426;2023-05-31T04:19:03;10.57;;;5.47;;
49730;SDS011;35622;52.008;5.426;2023-05-31T04:21:28;10.90;;;5.93;;
49730;SDS011;35622;52.008;5.426;2023-05-31T04:23:54;10.90;;;6.05;;
49730;SDS011;35622;52.008;5.426;2023-05-31T04:26:20;12.75;;;6.68;;
49730;SDS011;35622;52.008;5.426;2023-05-31T04:28:46;11.55;;;6.25;;
49730;SDS011;35622;52.008;5.426;2023-05-31T04:31:18;13.57;;;6.72;;
49730;SDS011;35622;52.008;5.426;2023-05-31T04:33:44;11.82;;;6.50;;
49730;SDS011;35622;52.008;5.426;2023-05-31T04:36:10;9.60;;;5.68;;
49730;SDS011;35622;52.008;5.426;2023-05-31T04:38:35;13.02;;;6.13;;
49730;SDS011;35622;52.008;5.426;2023-05-31T04:41:01;11.52;;;5.78;;
49730;SDS011;35622;52.008;5.426;2023-05-31T04:43:28;13.85;;;6.35;;
49730;SDS011;35622;52.008;5.426;2023-05-31T04:45:54;12.85;;;6.00;;
49730;SDS011;35622;52.008;5.426;2023-05-31T04:48:20;12.30;;;6.10;;
49730;SDS011;35622;52.008;5.426;2023-05-31T04:50:47;11.23;;;5.70;;
49730;SDS011;35622;52.008;5.426;2023-05-31T04:53:13;12.35;;;5.88;;
49730;SDS011;35622;52.008;5.426;2023-05-31T04:55:39;11.65;;;6.30;;
49730;SDS011;35622;52.008;5.426;2023-05-31T04:58:05;10.15;;;5.72;;
49730;SDS011;35622;52.008;5.426;2023-05-31T05:00:33;14.30;;;6.57;;
49730;SDS011;35622;52.008;5.426;2023-05-31T05:02:59;15.25;;;6.43;;
49730;SDS011;35622;52.008;5.426;2023-05-31T05:05:25;10.73;;;6.25;;
49730;SDS011;35622;52.008;5.426;2023-05-31T05:07:51;11.20;;;6.40;;
49730;SDS011;35622;52.008;5.426;2023-05-31T05:10:17;12.98;;;6.72;;
49730;SDS011;35622;52.008;5.426;2023-05-31T05:12:42;12.05;;;6.90;;
49730;SDS011;35622;52.008;5.426;2023-05-31T05:15:08;9.82;;;6.00;;
49730;SDS011;35622;52.008;5.426;2023-05-31T05:17:34;13.27;;;6.88;;
49730;SDS011;35622;52.008;5.426;2023-05-31T05:20:00;10.25;;;6.57;;
49730;SDS011;35622;52.008;5.426;2023-05-31T05:22:26;12.85;;;7.18;;
49730;SDS011;35622;52.008;5.426;2023-05-31T05:24:52;10.63;;;6.68;;
49730;SDS011;35622;52.008;5.426;2023-05-31T05:27:18;15.68;;;6.75;;
49730;SDS011;35622;52.008;5.426;2023-05-31T05:29:46;13.15;;;7.30;;
49730;SDS011;35622;52.008;5.426;2023-05-31T05:32:12;15.07;;;7.22;;
49730;SDS011;35622;52.008;5.426;2023-05-31T05:34:38;12.57;;;7.43;;
49730;SDS011;35622;52.008;5.426;2023-05-31T05:37:03;12.63;;;7.15;;
49730;SDS011;35622;52.008;5.426;2023-05-31T05:39:30;16.52;;;7.85;;
49730;SDS011;35622;52.008;5.426;2023-05-31T05:41:56;14.27;;;7.55;;
49730;SDS011;35622;52.008;5.426;2023-05-31T05:44:21;13.85;;;7.50;;
49730;SDS011;35622;52.008;5.426;2023-05-31T05:46:47;15.18;;;7.60;;
49730;SDS011;35622;52.008;5.426;2023-05-31T05:49:12;15.75;;;7.97;;
49730;SDS011;35622;52.008;5.426;2023-05-31T05:51:38;14.25;;;7.60;;
49730;SDS011;35622;52.008;5.426;2023-05-31T05:54:03;15.10;;;7.72;;
49730;SDS011;35622;52.008;5.426;2023-05-31T05:56:29;12.55;;;7.80;;
49730;SDS011;35622;52.008;5.426;2023-05-31T05:58:54;18.88;;;8.73;;
49730;SDS011;35622;52.008;5.426;2023-05-31T06:01:20;13.75;;;8.40;;
49730;SDS011;35622;52.008;5.426;2023-05-31T06:03:47;15.50;;;8.45;;
49730;SDS011;35622;52.008;5.426;2023-05-31T06:06:14;12.98;;;7.90;;
49730;SDS011;35622;52.008;5.426;2023-05-31T06:08:40;12.75;;;7.05;;
49730;SDS011;35622;52.008;5.426;2023-05-31T06:11:05;11.10;;;7.32;;
49730;SDS011;35622;52.008;5.426;2023-05-31T06:13:31;13.50;;;7.68;;
49730;SDS011;35622;52.008;5.426;2023-05-31T06:15:57;12.18;;;7.35;;
49730;SDS011;35622;52.008;5.426;2023-05-31T06:18:22;10.70;;;7.20;;
49730;SDS011;35622;52.008;5.426;2023-05-31T06:20:48;10.73;;;7.22;;
49730;SDS011;35622;52.008;5.426;2023-05-31T06:23:13;12.85;;;8.20;;
49730;SDS011;35622;52.008;5.426;2023-05-31T06:25:39;12.85;;;7.80;;
49730;SDS011;35622;52.008;5.426;2023-05-31T06:28:06;10.60;;;7.40;;
49730;SDS011;35622;52.008;5.426;2023-05-31T06:30:31;12.77;;;8.00;;
49730;SDS011;35622;52.008;5.426;2023-05-31T06:32:57;12.43;;;7.55;;
49730;SDS011;35622;52.008;5.426;2023-05-31T06:35:22;12.75;;;8.43;;
49730;SDS011;35622;52.008;5.426;2023-05-31T06:37:48;9.00;;;6.93;;
49730;SDS011;35622;52.008;5.426;2023-05-31T06:40:16;12.30;;;8.57;;
49730;SDS011;35622;52.008;5.426;2023-05-31T06:42:42;11.65;;;7.88;;
49730;SDS011;35622;52.008;5.426;2023-05-31T06:45:08;10.85;;;7.63;;
49730;SDS011;35622;52.008;5.426;2023-05-31T06:47:34;12.43;;;7.82;;
49730;SDS011;35622;52.008;5.426;2023-05-31T06:50:00;11.80;;;7.72;;
49730;SDS011;35622;52.008;5.426;2023-05-31T06:52:27;10.90;;;7.25;;
49730;SDS011;35622;52.008;5.426;2023-05-31T06:54:52;11.98;;;7.55;;
49730;SDS011;35622;52.008;5.426;2023-05-31T06:57:18;10.43;;;7.45;;
49730;SDS011;35622;52.008;5.426;2023-05-31T06:59:43;8.93;;;7.63;;
49730;SDS011;35622;52.008;5.426;2023-05-31T07:02:09;9.68;;;8.10;;
49730;SDS011;35622;52.008;5.426;2023-05-31T07:04:35;10.75;;;7.80;;
49730;SDS011;35622;52.008;5.426;2023-05-31T07:07:00;10.88;;;6.80;;
49730;SDS011;35622;52.008;5.426;2023-05-31T07:09:27;12.73;;;7.93;;
49730;SDS011;35622;52.008;5.426;2023-05-31T07:11:53;11.57;;;8.30;;
49730;SDS011;35622;52.008;5.426;2023-05-31T07:14:18;9.63;;;7.10;;
49730;SDS011;35622;52.008;5.426;2023-05-31T07:16:44;10.90;;;7.88;;
49730;SDS011;35622;52.008;5.426;2023-05-31T07:19:10;10.20;;;7.10;;
49730;SDS011;35622;52.008;5.426;2023-05-31T07:21:35;9.70;;;6.57;;
49730;SDS011;35622;52.008;5.426;2023-05-31T07:24:01;8.40;;;5.78;;
49730;SDS011;35622;52.008;5.426;2023-05-31T07:26:27;11.32;;;7.13;;
49730;SDS011;35622;52.008;5.426;2023-05-31T07:28:52;9.00;;;5.95;;
49730;SDS011;35622;52.008;5.426;2023-05-31T07:31:18;10.10;;;7.30;;
49730;SDS011;35622;52.008;5.426;2023-05-31T07:33:44;10.60;;;7.13;;
49730;SDS011;35622;52.008;5.426;2023-05-31T07:36:10;11.18;;;7.07;;
49730;SDS011;35622;52.008;5.426;2023-05-31T07:38:35;8.80;;;5.80;;
49730;SDS011;35622;52.008;5.426;2023-05-31T07:41:01;9.23;;;6.15;;
49730;SDS011;35622;52.008;5.426;2023-05-31T07:43:27;8.07;;;5.90;;
49730;SDS011;35622;52.008;5.426;2023-05-31T07:45:54;10.55;;;6.40;;
49730;SDS011;35622;52.008;5.426;2023-05-31T07:48:21;8.50;;;6.07;;
49730;SDS011;35622;52.008;5.426;2023-05-31T07:50:48;9.13;;;6.25;;
49730;SDS011;35622;52.008;5.426;2023-05-31T07:53:13;7.97;;;5.97;;
49730;SDS011;35622;52.008;5.426;2023-05-31T07:55:39;8.23;;;6.15;;
49730;SDS011;35622;52.008;5.426;2023-05-31T07:58:05;8.25;;;5.75;;
49730;SDS011;35622;52.008;5.426;2023-05-31T08:00:31;9.55;;;6.78;;
49730;SDS011;35622;52.008;5.426;2023-05-31T08:02:56;8.35;;;6.30;;
49730;SDS011;35622;52.008;5.426;2023-05-31T08:05:22;10.43;;;6.40;;
49730;SDS011;35622;52.008;5.426;2023-05-31T08:07:48;9.70;;;5.38;;
49730;SDS011;35622;52.008;5.426;2023-05-31T08:10:14;10.05;;;6.32;;
49730;SDS011;35622;52.008;5.426;2023-05-31T08:12:41;10.57;;;5.45;;
49730;SDS011;35622;52.008;5.426;2023-05-31T08:15:07;9.68;;;5.60;;
49730;SDS011;35622;52.008;5.426;2023-05-31T08:17:33;9.38;;;6.10;;
49730;SDS011;35622;52.008;5.426;2023-05-31T08:19:58;8.25;;;5.78;;
49730;SDS011;35622;52.008;5.426;2023-05-31T08:22:24;8.10;;;4.72;;
49730;SDS011;35622;52.008;5.426;2023-05-31T08:24:49;7.72;;;5.20;;
49730;SDS011;35622;52.008;5.426;2023-05-31T08:27:15;12.55;;;5.70;;
49730;SDS011;35622;52.008;5.426;2023-05-31T08:29:42;8.50;;;5.32;;
49730;SDS011;35622;52.008;5.426;2023-05-31T08:32:08;7.88;;;5.03;;
49730;SDS011;35622;52.008;5.426;2023-05-31T08:34:33;7.53;;;5.13;;
49730;SDS011;35622;52.008;5.426;2023-05-31T08:36:59;8.55;;;5.65;;
49730;SDS011;35622;52.008;5.426;2023-05-31T08:39:26;7.00;;;4.80;;
49730;SDS011;35622;52.008;5.426;2023-05-31T08:41:59;9.93;;;5.00;;
49730;SDS011;35622;52.008;5.426;2023-05-31T08:44:27;8.05;;;4.50;;
49730;SDS011;35622;52.008;5.426;2023-05-31T08:46:53;7.03;;;4.25;;
49730;SDS011;35622;52.008;5.426;2023-05-31T08:49:23;7.35;;;4.13;;
49730;SDS011;35622;52.008;5.426;2023-05-31T08:51:49;7.55;;;4.45;;
49730;SDS011;35622;52.008;5.426;2023-05-31T08:54:14;7.68;;;4.35;;
49730;SDS011;35622;52.008;5.426;2023-05-31T08:56:41;7.15;;;4.60;;
49730;SDS011;35622;52.008;5.426;2023-05-31T08:59:09;6.22;;;4.13;;
49730;SDS011;35622;52.008;5.426;2023-05-31T09:01:37;7.10;;;4.20;;
49730;SDS011;35622;52.008;5.426;2023-05-31T09:04:04;5.20;;;3.28;;
49730;SDS011;35622;52.008;5.426;2023-05-31T09:06:31;6.28;;;3.65;;
49730;SDS011;35622;52.008;5.426;2023-05-31T09:08:57;6.65;;;4.03;;
49730;SDS011;35622;52.008;5.426;2023-05-31T09:11:24;7.68;;;3.88;;
49730;SDS011;35622;52.008;5.426;2023-05-31T09:13:50;7.82;;;3.95;;
49730;SDS011;35622;52.008;5.426;2023-05-31T09:16:16;8.02;;;3.70;;
49730;SDS011;35622;52.008;5.426;2023-05-31T09:18:42;7.53;;;3.80;;
49730;SDS011;35622;52.008;5.426;2023-05-31T09:21:11;7.35;;;3.58;;
49730;SDS011;35622;52.008;5.426;2023-05-31T09:23:50;7.78;;;3.88;;
49730;SDS011;35622;52.008;5.426;2023-05-31T09:26:24;8.57;;;3.47;;
49730;SDS011;35622;52.008;5.426;2023-05-31T09:28:50;4.45;;;2.45;;
49730;SDS011;35622;52.008;5.426;2023-05-31T09:31:17;4.93;;;2.85;;
49730;SDS011;35622;52.008;5.426;2023-05-31T09:33:43;4.72;;;2.72;;
49730;SDS011;35622;52.008;5.426;2023-05-31T09:36:10;5.22;;;3.28;;
49730;SDS011;35622;52.008;5.426;2023-05-31T09:38:38;6.25;;;3.60;;
49730;SDS011;35622;52.008;5.426;2023-05-31T09:41:10;8.52;;;3.33;;
49730;SDS011;35622;52.008;5.426;2023-05-31T09:43:40;5.55;;;3.20;;
49730;SDS011;35622;52.008;5.426;2023-05-31T09:46:13;7.35;;;3.03;;
49730;SDS011;35622;52.008;5.426;2023-05-31T09:48:40;6.68;;;3.53;;
49730;SDS011;35622;52.008;5.426;2023-05-31T09:51:06;6.00;;;3.28;;
49730;SDS011;35622;52.008;5.426;2023-05-31T09:53:40;5.07;;;2.53;;
49730;SDS011;35622;52.008;5.426;2023-05-31T09:56:07;4.47;;;3.13;;
49730;SDS011;35622;52.008;5.426;2023-05-31T09:58:36;7.10;;;3.42;;
49730;SDS011;35622;52.008;5.426;2023-05-31T10:01:02;6.45;;;2.97;;
49730;SDS011;35622;52.008;5.426;2023-05-31T10:03:28;5.05;;;2.72;;
49730;SDS011;35622;52.008;5.426;2023-05-31T10:05:56;5.85;;;2.97;;
49730;SDS011;35622;52.008;5.426;2023-05-31T10:08:22;5.93;;;2.80;;
49730;SDS011;35622;52.008;5.426;2023-05-31T10:10:48;5.78;;;2.60;;
49730;SDS011;35622;52.008;5.426;2023-05-31T10:13:14;5.35;;;2.70;;
49730;SDS011;35622;52.008;5.426;2023-05-31T10:15:42;4.68;;;2.47;;
49730;SDS011;35622;52.008;5.426;2023-05-31T10:18:13;7.00;;;2.88;;
49730;SDS011;35622;52.008;5.426;2023-05-31T10:23:18;9.45;;;5.35;;
49730;SDS011;35622;52.008;5.426;2023-05-31T10:28:16;6.93;;;3.13;;
49730;SDS011;35622;52.008;5.426;2023-05-31T10:30:46;6.03;;;3.38;;
49730;SDS011;35622;52.008;5.426;2023-05-31T10:33:16;9.27;;;5.13;;
49730;SDS011;35622;52.008;5.426;2023-05-31T10:35:44;7.10;;;4.40;;
49730;SDS011;35622;52.008;5.426;2023-05-31T10:38:11;7.60;;;3.85;;
49730;SDS011;35622;52.008;5.426;2023-05-31T10:43:22;8.18;;;5.00;;
49730;SDS011;35622;52.008;5.426;2023-05-31T10:45:55;8.20;;;5.57;;
49730;SDS011;35622;52.008;5.426;2023-05-31T10:51:08;5.22;;;3.30;;
49730;SDS011;35622;52.008;5.426;2023-05-31T10:53:36;6.15;;;3.80;;
49730;SDS011;35622;52.008;5.426;2023-05-31T10:56:06;7.28;;;4.10;;
49730;SDS011;35622;52.008;5.426;2023-05-31T10:58:36;7.90;;;5.03;;
49730;SDS011;35622;52.008;5.426;2023-05-31T11:01:13;6.97;;;4.45;;
49730;SDS011;35622;52.008;5.426;2023-05-31T11:03:58;5.75;;;2.95;;
49730;SDS011;35622;52.008;5.426;2023-05-31T11:06:26;5.13;;;2.92;;
49730;SDS011;35622;52.008;5.426;2023-05-31T11:16:24;6.68;;;3.72;;
49730;SDS011;35622;52.008;5.426;2023-05-31T11:19:01;6.40;;;2.75;;
49730;SDS011;35622;52.008;5.426;2023-05-31T11:27:04;5.40;;;2.78;;
49730;SDS011;35622;52.008;5.426;2023-05-31T11:32:18;8.60;;;4.93;;
49730;SDS011;35622;52.008;5.426;2023-05-31T11:35:11;8.60;;;4.28;;
49730;SDS011;35622;52.008;5.426;2023-05-31T11:37:39;6.93;;;4.70;;
49730;SDS011;35622;52.008;5.426;2023-05-31T11:42:35;5.68;;;4.32;;
49730;SDS011;35622;52.008;5.426;2023-05-31T11:45:03;6.60;;;4.50;;
49730;SDS011;35622;52.008;5.426;2023-05-31T11:47:46;6.35;;;4.70;;
49730;SDS011;35622;52.008;5.426;2023-05-31T11:50:24;7.40;;;3.58;;
49730;SDS011;35622;52.008;5.426;2023-05-31T11:52:50;5.75;;;2.95;;
49730;SDS011;35622;52.008;5.426;2023-05-31T11:55:16;5.70;;;2.97;;
49730;SDS011;35622;52.008;5.426;2023-05-31T11:57:43;7.28;;;3.90;;
49730;SDS011;35622;52.008;5.426;2023-05-31T12:00:17;7.10;;;4.18;;
49730;SDS011;35622;52.008;5.426;2023-05-31T12:02:48;7.47;;;4.53;;
49730;SDS011;35622;52.008;5.426;2023-05-31T12:05:21;7.78;;;4.28;;
49730;SDS011;35622;52.008;5.426;2023-05-31T12:07:47;6.30;;;3.20;;
49730;SDS011;35622;52.008;5.426;2023-05-31T12:10:17;7.35;;;3.83;;
49730;SDS011;35622;52.008;5.426;2023-05-31T12:12:42;7.78;;;4.20;;
49730;SDS011;35622;52.008;5.426;2023-05-31T12:15:11;6.13;;;3.35;;
49730;SDS011;35622;52.008;5.426;2023-05-31T12:17:38;4.13;;;3.00;;
49730;SDS011;35622;52.008;5.426;2023-05-31T12:20:04;9.63;;;4.68;;
49730;SDS011;35622;52.008;5.426;2023-05-31T12:22:30;7.53;;;3.97;;
49730;SDS011;35622;52.008;5.426;2023-05-31T12:24:56;6.88;;;4.07;;
49730;SDS011;35622;52.008;5.426;2023-05-31T12:27:22;4.32;;;3.00;;
49730;SDS011;35622;52.008;5.426;2023-05-31T12:29:49;6.05;;;2.88;;
49730;SDS011;35622;52.008;5.426;2023-05-31T12:32:20;6.30;;;2.72;;
49730;SDS011;35622;52.008;5.426;2023-05-31T12:34:46;8.10;;;4.00;;
49730;SDS011;35622;52.008;5.426;2023-05-31T12:37:14;8.57;;;3.97;;
49730;SDS011;35622;52.008;5.426;2023-05-31T12:39:40;8.63;;;4.65;;
49730;SDS011;35622;52.008;5.426;2023-05-31T12:42:06;6.65;;;4.18;;
49730;SDS011;35622;52.008;5.426;2023-05-31T12:44:32;6.05;;;4.07;;
49730;SDS011;35622;52.008;5.426;2023-05-31T12:47:07;7.25;;;4.00;;
49730;SDS011;35622;52.008;5.426;2023-05-31T12:49:34;8.15;;;3.95;;
49730;SDS011;35622;52.008;5.426;2023-05-31T12:52:01;6.78;;;4.03;;
49730;SDS011;35622;52.008;5.426;2023-05-31T12:54:31;7.00;;;3.55;;
49730;SDS011;35622;52.008;5.426;2023-05-31T12:56:58;8.40;;;4.22;;
49730;SDS011;35622;52.008;5.426;2023-05-31T12:59:27;6.70;;;3.80;;
49730;SDS011;35622;52.008;5.426;2023-05-31T13:01:54;9.55;;;4.32;;
49730;SDS011;35622;52.008;5.426;2023-05-31T13:04:23;7.05;;;4.20;;
49730;SDS011;35622;52.008;5.426;2023-05-31T13:06:50;9.45;;;4.00;;
49730;SDS011;35622;52.008;5.426;2023-05-31T13:09:16;7.80;;;4.00;;
49730;SDS011;35622;52.008;5.426;2023-05-31T13:11:42;6.38;;;3.58;;
49730;SDS011;35622;52.008;5.426;2023-05-31T13:14:08;7.00;;;3.40;;
49730;SDS011;35622;52.008;5.426;2023-05-31T13:16:35;11.25;;;4.20;;
49730;SDS011;35622;52.008;5.426;2023-05-31T13:19:02;7.68;;;3.55;;
49730;SDS011;35622;52.008;5.426;2023-05-31T13:21:31;9.65;;;4.60;;
49730;SDS011;35622;52.008;5.426;2023-05-31T13:23:58;6.60;;;3.75;;
49730;SDS011;35622;52.008;5.426;2023-05-31T13:26:25;9.57;;;3.88;;
49730;SDS011;35622;52.008;5.426;2023-05-31T13:28:55;9.50;;;3.70;;
49730;SDS011;35622;52.008;5.426;2023-05-31T13:31:22;6.88;;;3.35;;
49730;SDS011;35622;52.008;5.426;2023-05-31T13:33:48;6.90;;;3.40;;
49730;SDS011;35622;52.008;5.426;2023-05-31T13:36:15;7.65;;;3.63;;
49730;SDS011;35622;52.008;5.426;2023-05-31T13:38:41;7.75;;;3.20;;
49730;SDS011;35622;52.008;5.426;2023-05-31T13:41:07;7.18;;;3.85;;
49730;SDS011;35622;52.008;5.426;2023-05-31T13:43:33;8.45;;;3.50;;
49730;SDS011;35622;52.008;5.426;2023-05-31T13:45:59;5.22;;;3.28;;
49730;SDS011;35622;52.008;5.426;2023-05-31T13:48:25;7.30;;;3.45;;
49730;SDS011;35622;52.008;5.426;2023-05-31T13:50:51;7.78;;;3.88;;
49730;SDS011;35622;52.008;5.426;2023-05-31T13:53:20;6.55;;;3.20;;
49730;SDS011;35622;52.008;5.426;2023-05-31T13:55:46;5.70;;;3.60;;
49730;SDS011;35622;52.008;5.426;2023-05-31T13:58:12;7.35;;;3.92;;
49730;SDS011;35622;52.008;5.426;2023-05-31T14:00:38;7.72;;;4.28;;
49730;SDS011;35622;52.008;5.426;2023-05-31T14:03:03;6.10;;;3.30;;
49730;SDS011;35622;52.008;5.426;2023-05-31T14:05:29;6.10;;;3.10;;
49730;SDS011;35622;52.008;5.426;2023-05-31T14:07:55;7.15;;;3.63;;
49730;SDS011;35622;52.008;5.426;2023-05-31T14:10:21;6.28;;;3.53;;
49730;SDS011;35622;52.008;5.426;2023-05-31T14:12:47;7.50;;;3.65;;
49730;SDS011;35622;52.008;5.426;2023-05-31T14:15:13;7.65;;;3.53;;
49730;SDS011;35622;52.008;5.426;2023-05-31T14:17:39;6.05;;;3.33;;
49730;SDS011;35622;52.008;5.426;2023-05-31T14:20:05;6.28;;;3.50;;
49730;SDS011;35622;52.008;5.426;2023-05-31T14:22:31;7.70;;;3.30;;
49730;SDS011;35622;52.008;5.426;2023-05-31T14:24:57;7.57;;;3.85;;
49730;SDS011;35622;52.008;5.426;2023-05-31T14:27:23;7.95;;;3.25;;
49730;SDS011;35622;52.008;5.426;2023-05-31T14:29:49;5.05;;;2.83;;
49730;SDS011;35622;52.008;5.426;2023-05-31T14:32:14;4.82;;;3.10;;
49730;SDS011;35622;52.008;5.426;2023-05-31T14:34:44;5.30;;;3.17;;
49730;SDS011;35622;52.008;5.426;2023-05-31T14:37:10;6.45;;;3.08;;
49730;SDS011;35622;52.008;5.426;2023-05-31T14:39:36;4.32;;;2.70;;
49730;SDS011;35622;52.008;5.426;2023-05-31T14:42:07;6.20;;;3.35;;
49730;SDS011;35622;52.008;5.426;2023-05-31T14:44:33;5.78;;;2.97;;
49730;SDS011;35622;52.008;5.426;2023-05-31T14:47:00;6.95;;;3.45;;
49730;SDS011;35622;52.008;5.426;2023-05-31T14:49:26;8.68;;;4.15;;
49730;SDS011;35622;52.008;5.426;2023-05-31T14:51:52;7.13;;;3.65;;
49730;SDS011;35622;52.008;5.426;2023-05-31T14:54:17;7.53;;;3.40;;
49730;SDS011;35622;52.008;5.426;2023-05-31T14:56:43;8.60;;;3.83;;
49730;SDS011;35622;52.008;5.426;2023-05-31T14:59:09;7.63;;;4.18;;
49730;SDS011;35622;52.008;5.426;2023-05-31T15:01:35;9.05;;;3.80;;
49730;SDS011;35622;52.008;5.426;2023-05-31T15:04:07;10.82;;;4.30;;
49730;SDS011;35622;52.008;5.426;2023-05-31T15:06:33;9.25;;;4.95;;
49730;SDS011;35622;52.008;5.426;2023-05-31T15:08:59;8.18;;;4.47;;
49730;SDS011;35622;52.008;5.426;2023-05-31T15:11:24;6.65;;;3.63;;
49730;SDS011;35622;52.008;5.426;2023-05-31T15:13:51;7.35;;;4.38;;
49730;SDS011;35622;52.008;5.426;2023-05-31T15:16:17;10.45;;;4.70;;
49730;SDS011;35622;52.008;5.426;2023-05-31T15:18:42;8.57;;;4.53;;